createdAt,value
2022-09-03T00:04:25.867Z,17.10
2022-09-03T00:10:52.442Z,16.80
2022-09-03T00:17:18.416Z,17.50
2022-09-03T00:23:24.886Z,18.60
2022-09-03T00:29:33.642Z,17.10
2022-09-03T00:35:43.469Z,17.20
2022-09-03T00:42:12.910Z,17.90
2022-09-03T00:48:32.922Z,17.40
2022-09-03T00:54:47.105Z,18.60
2022-09-03T01:00:51.158Z,17.80
2022-09-03T01:07:19.841Z,19.10
2022-09-03T01:13:35.207Z,18.90
2022-09-03T01:19:52.550Z,18.50
2022-09-03T01:26:01.883Z,19.00
2022-09-03T01:32:20.238Z,19.10
2022-09-03T01:38:46.706Z,19.20
2022-09-03T01:45:23.513Z,19.30
2022-09-03T01:51:29.871Z,19.20
2022-09-03T01:57:41.934Z,18.10
2022-09-03T02:03:46.326Z,18.70
2022-09-03T02:09:48.676Z,18.90
2022-09-03T02:15:53.551Z,18.40
2022-09-03T02:21:57.596Z,19.00
2022-09-03T02:28:00.333Z,18.70
2022-09-03T02:34:02.425Z,18.80
2022-09-03T02:40:10.747Z,18.90
2022-09-03T02:46:22.145Z,18.70
2022-09-03T02:52:24.340Z,19.60
2022-09-03T02:58:27.075Z,18.50
2022-09-03T03:04:31.200Z,19.40
2022-09-03T03:10:33.346Z,19.50
2022-09-03T03:16:36.025Z,19.80
2022-09-03T03:22:38.284Z,18.40
2022-09-03T03:28:42.705Z,18.90
2022-09-03T03:34:44.983Z,18.20
2022-09-03T03:40:47.298Z,18.50
2022-09-03T03:46:49.718Z,17.80
2022-09-03T03:52:52.130Z,17.50
2022-09-03T03:58:55.227Z,17.00
2022-09-03T04:04:57.683Z,17.50
2022-09-03T04:11:02.871Z,17.60
2022-09-03T04:17:05.066Z,17.00
2022-09-03T04:23:07.326Z,17.30
2022-09-03T04:29:10.673Z,18.00
2022-09-03T04:35:12.792Z,18.80
2022-09-03T04:41:21.133Z,17.90
2022-09-03T04:47:23.466Z,16.90
2022-09-03T04:53:25.717Z,16.70
2022-09-03T04:59:27.776Z,16.60
2022-09-03T05:05:29.799Z,16.70
2022-09-03T05:11:32.186Z,16.60
2022-09-03T05:17:37.666Z,17.00
2022-09-03T05:23:42.913Z,16.70
2022-09-03T05:29:45.778Z,16.70
2022-09-03T05:35:48.168Z,16.80
2022-09-03T05:41:52.545Z,16.80
2022-09-03T05:47:54.656Z,16.70
2022-09-03T05:53:57.692Z,17.00
2022-09-03T06:00:00.594Z,16.80
2022-09-03T06:06:02.741Z,17.30
2022-09-03T06:12:05.122Z,16.60
2022-09-03T06:18:07.230Z,16.60
2022-09-03T06:24:21.823Z,17.50
2022-09-03T06:30:24.569Z,16.70
2022-09-03T06:36:26.906Z,16.80
2022-09-03T06:42:28.936Z,17.20
2022-09-03T06:48:33.235Z,16.50
2022-09-03T06:54:35.438Z,17.20
2022-09-03T07:00:37.991Z,17.30
2022-09-03T07:06:41.192Z,18.00
2022-09-03T07:12:43.453Z,17.60
2022-09-03T07:18:46.841Z,17.50
2022-09-03T07:24:49.204Z,17.50
2022-09-03T07:30:52.630Z,17.50
2022-09-03T07:36:55.262Z,17.60
2022-09-03T07:42:59.155Z,17.20
2022-09-03T07:49:02.653Z,17.00
2022-09-03T07:55:05.178Z,17.30
2022-09-03T08:01:08.975Z,17.50
2022-09-03T08:07:13.766Z,17.10
2022-09-03T08:13:16.080Z,17.00
2022-09-03T08:19:19.319Z,17.10
2022-09-03T08:25:25.066Z,17.40
2022-09-03T08:31:28.745Z,17.40
2022-09-03T08:37:32.921Z,17.20
2022-09-03T08:43:50.739Z,17.60
2022-09-03T08:50:02.616Z,17.60
2022-09-03T08:56:10.680Z,17.90
2022-09-03T09:02:42.685Z,17.80
2022-09-03T09:09:03.404Z,17.90
2022-09-03T09:15:27.491Z,17.80
2022-09-03T09:21:37.384Z,17.70
2022-09-03T09:27:47.265Z,17.70
2022-09-03T09:33:49.555Z,17.70
2022-09-03T09:40:00.758Z,17.80
2022-09-03T09:46:25.844Z,17.70
2022-09-03T09:52:31.815Z,18.00
2022-09-03T09:58:35.206Z,17.80
2022-09-03T10:04:38.098Z,17.90
2022-09-03T10:10:49.517Z,18.10
2022-09-03T10:17:01.439Z,18.00
2022-09-03T10:23:08.868Z,18.00
2022-09-03T10:29:11.450Z,17.90
2022-09-03T10:35:33.967Z,18.50
2022-09-03T10:42:00.013Z,18.40
2022-09-03T10:48:40.515Z,18.30
2022-09-03T10:54:48.665Z,18.30
2022-09-03T11:00:59.224Z,18.10
2022-09-03T11:07:06.133Z,17.90
2022-09-03T11:13:23.496Z,18.20
2022-09-03T11:19:37.248Z,18.30
2022-09-03T11:25:49.342Z,18.00
2022-09-03T11:32:08.193Z,18.10
2022-09-03T11:38:16.906Z,18.30
2022-09-03T11:44:20.145Z,18.50
2022-09-03T11:50:34.309Z,18.30
2022-09-03T11:56:36.607Z,18.80
2022-09-03T12:02:45.801Z,18.50
2022-09-03T12:09:08.258Z,18.70
2022-09-03T12:15:48.124Z,19.10
2022-09-03T12:21:50.795Z,19.20
2022-09-03T12:27:53.995Z,18.80
2022-09-03T12:33:59.927Z,18.80
2022-09-03T12:40:07.453Z,18.70
2022-09-03T12:46:16.333Z,18.70
2022-09-03T12:52:36.902Z,18.50
2022-09-03T12:58:53.290Z,18.30
2022-09-03T13:04:56.616Z,18.40
2022-09-03T13:11:04.222Z,18.30
2022-09-03T13:17:27.963Z,18.40
2022-09-03T13:23:41.619Z,18.10
2022-09-03T13:30:17.508Z,17.90
2022-09-03T13:36:26.292Z,18.30
2022-09-03T13:42:41.677Z,18.20
2022-09-03T13:49:09.382Z,18.10
2022-09-03T13:55:38.293Z,18.00
2022-09-03T14:02:06.808Z,18.00
2022-09-03T14:08:56.719Z,18.20
2022-09-03T14:15:26.332Z,18.10
2022-09-03T14:21:53.783Z,18.40
2022-09-03T14:28:13.038Z,18.50
2022-09-03T14:34:42.879Z,18.30
2022-09-03T14:40:47.462Z,18.30
2022-09-03T14:47:27.483Z,18.30
2022-09-03T14:53:45.624Z,18.60
2022-09-03T14:59:50.774Z,18.70
2022-09-03T15:06:08.086Z,18.70
2022-09-03T15:12:13.843Z,19.10
2022-09-03T15:18:44.380Z,18.90
2022-09-03T15:24:53.996Z,18.60
2022-09-03T15:31:12.720Z,18.80
2022-09-03T15:37:41.063Z,18.40
2022-09-03T15:43:47.368Z,18.40
2022-09-03T15:50:26.942Z,18.30
2022-09-03T15:56:29.706Z,18.50
2022-09-03T16:02:52.775Z,18.20
2022-09-03T16:09:02.461Z,18.10
2022-09-03T16:15:20.252Z,17.90
2022-09-03T16:21:51.797Z,17.90
2022-09-03T16:28:21.430Z,17.80
2022-09-03T16:34:57.568Z,17.70
2022-09-03T16:41:24.779Z,17.40
2022-09-03T16:47:45.472Z,17.40
2022-09-03T16:54:09.538Z,17.20
2022-09-03T17:00:15.138Z,17.30
2022-09-03T17:06:36.321Z,17.20
2022-09-03T17:13:03.045Z,17.20
2022-09-03T17:19:26.627Z,17.20
2022-09-03T17:25:37.909Z,16.90
2022-09-03T17:31:51.758Z,16.90
2022-09-03T17:38:15.829Z,16.90
2022-09-03T17:44:44.337Z,16.70
2022-09-03T17:50:57.808Z,16.50
2022-09-03T17:57:18.000Z,16.60
2022-09-03T18:03:24.435Z,16.60
2022-09-03T18:09:37.883Z,17.20
2022-09-03T18:15:52.439Z,17.30
2022-09-03T18:22:13.298Z,17.10
2022-09-03T18:28:41.731Z,17.20
2022-09-03T18:35:02.709Z,17.30
2022-09-03T18:42:01.379Z,17.10
2022-09-03T18:48:53.131Z,17.10
2022-09-03T18:56:01.768Z,16.90
2022-09-03T19:02:34.844Z,16.90
2022-09-03T19:09:37.511Z,16.90
2022-09-03T19:16:11.495Z,16.70
2022-09-03T19:22:47.431Z,16.80
2022-09-03T19:29:14.078Z,16.80
2022-09-03T19:35:41.041Z,16.90
2022-09-03T19:42:21.465Z,16.90
2022-09-03T19:49:09.331Z,17.10
2022-09-03T19:55:32.251Z,17.10
2022-09-03T20:01:56.007Z,17.00
2022-09-03T20:27:51.746Z,17.10
2022-09-03T20:47:48.572Z,17.20
2022-09-03T20:54:20.941Z,17.00
2022-09-03T21:00:23.522Z,17.00
2022-09-03T21:06:28.339Z,17.10
2022-09-03T21:12:54.111Z,17.20
2022-09-03T21:19:22.543Z,17.10
2022-09-03T21:25:35.872Z,17.20
2022-09-03T21:31:54.499Z,17.10
2022-09-03T21:38:14.423Z,17.20
2022-09-03T21:44:46.443Z,17.20
2022-09-03T21:51:00.468Z,17.30
2022-09-03T21:57:25.538Z,17.20
2022-09-03T22:03:27.686Z,17.30
2022-09-03T22:09:41.282Z,17.40
2022-09-03T22:15:50.997Z,17.30
2022-09-03T22:22:00.133Z,17.20
2022-09-03T22:28:15.547Z,17.30
2022-09-03T22:34:37.549Z,17.40
2022-09-03T22:40:58.583Z,17.30
2022-09-03T22:47:26.143Z,17.30
2022-09-03T22:53:40.199Z,17.20
2022-09-03T22:59:49.834Z,17.10
2022-09-03T23:06:01.159Z,17.00
2022-09-03T23:12:10.180Z,17.30
2022-09-03T23:18:17.815Z,17.10
2022-09-03T23:24:33.773Z,17.30
2022-09-03T23:30:36.717Z,17.30
2022-09-03T23:37:33.120Z,17.30
2022-09-03T23:43:49.361Z,17.90
2022-09-03T23:50:08.987Z,17.30
2022-09-03T23:56:39.062Z,17.90
